sensor_id;sensor_type;location;lat;lon;timestamp;temperature;humidity
30174;DHT22;16985;50.814;8.530;2023-01-13T00:01:28;8.90;99.90
30174;DHT22;16985;50.814;8.530;2023-01-13T00:03:54;8.80;99.90
30174;DHT22;16985;50.814;8.530;2023-01-13T00:06:22;8.80;99.90
30174;DHT22;16985;50.814;8.530;2023-01-13T00:08:52;8.80;99.90
30174;DHT22;16985;50.814;8.530;2023-01-13T00:11:19;8.90;99.90
30174;DHT22;16985;50.814;8.530;2023-01-13T02:00:32;9.00;99.90
30174;DHT22;16985;50.814;8.530;2023-01-13T02:14:40;8.90;99.90
30174;DHT22;16985;50.814;8.530;2023-01-13T03:51:54;7.90;99.90
30174;DHT22;16985;50.814;8.530;2023-01-13T03:54:24;7.90;99.90
30174;DHT22;16985;50.814;8.530;2023-01-13T03:57:03;7.80;99.90
30174;DHT22;16985;50.814;8.530;2023-01-13T03:59:40;7.80;99.90
30174;DHT22;16985;50.814;8.530;2023-01-13T04:02:31;7.80;99.90
30174;DHT22;16985;50.814;8.530;2023-01-13T04:05:06;7.80;99.90
30174;DHT22;16985;50.814;8.530;2023-01-13T04:10:09;7.80;99.90
30174;DHT22;16985;50.814;8.530;2023-01-13T04:12:51;7.80;99.90
30174;DHT22;16985;50.814;8.530;2023-01-13T04:15:38;7.70;99.90
30174;DHT22;16985;50.814;8.530;2023-01-13T04:18:20;7.70;99.90
30174;DHT22;16985;50.814;8.530;2023-01-13T04:20:52;7.70;99.90
30174;DHT22;16985;50.814;8.530;2023-01-13T04:23:21;7.60;99.90
30174;DHT22;16985;50.814;8.530;2023-01-13T04:25:48;7.60;99.90
30174;DHT22;16985;50.814;8.530;2023-01-13T04:28:14;7.50;99.90
30174;DHT22;16985;50.814;8.530;2023-01-13T04:30:41;7.50;99.90
30174;DHT22;16985;50.814;8.530;2023-01-13T04:33:08;7.40;99.90
30174;DHT22;16985;50.814;8.530;2023-01-13T04:35:35;7.40;99.90
30174;DHT22;16985;50.814;8.530;2023-01-13T04:38:03;7.40;99.90
30174;DHT22;16985;50.814;8.530;2023-01-13T04:40:31;7.30;99.90
30174;DHT22;16985;50.814;8.530;2023-01-13T04:42:57;7.30;99.90
30174;DHT22;16985;50.814;8.530;2023-01-13T04:45:23;7.30;99.90
30174;DHT22;16985;50.814;8.530;2023-01-13T04:47:48;7.30;99.90
30174;DHT22;16985;50.814;8.530;2023-01-13T04:50:15;7.30;99.90
30174;DHT22;16985;50.814;8.530;2023-01-13T04:52:51;7.20;99.90
30174;DHT22;16985;50.814;8.530;2023-01-13T04:55:18;7.20;99.90
30174;DHT22;16985;50.814;8.530;2023-01-13T04:57:45;7.20;99.90
30174;DHT22;16985;50.814;8.530;2023-01-13T05:00:13;7.20;99.90
30174;DHT22;16985;50.814;8.530;2023-01-13T05:02:43;7.20;99.90
30174;DHT22;16985;50.814;8.530;2023-01-13T05:05:09;7.10;99.90
30174;DHT22;16985;50.814;8.530;2023-01-13T05:51:41;6.70;99.90
30174;DHT22;16985;50.814;8.530;2023-01-13T05:54:07;6.70;99.90
30174;DHT22;16985;50.814;8.530;2023-01-13T05:56:33;6.70;99.90
30174;DHT22;16985;50.814;8.530;2023-01-13T05:58:59;6.60;99.90
30174;DHT22;16985;50.814;8.530;2023-01-13T06:01:25;6.60;99.90
30174;DHT22;16985;50.814;8.530;2023-01-13T06:03:51;6.60;99.90
30174;DHT22;16985;50.814;8.530;2023-01-13T06:06:17;6.60;99.90
30174;DHT22;16985;50.814;8.530;2023-01-13T06:08:42;6.60;99.90
30174;DHT22;16985;50.814;8.530;2023-01-13T06:11:08;6.60;99.90
30174;DHT22;16985;50.814;8.530;2023-01-13T06:13:34;6.60;99.90
30174;DHT22;16985;50.814;8.530;2023-01-13T06:16:00;6.50;99.90
30174;DHT22;16985;50.814;8.530;2023-01-13T06:18:26;6.60;99.90
30174;DHT22;16985;50.814;8.530;2023-01-13T06:20:52;6.50;99.90
30174;DHT22;16985;50.814;8.530;2023-01-13T06:23:18;6.50;99.90
30174;DHT22;16985;50.814;8.530;2023-01-13T06:26:24;6.50;99.90
30174;DHT22;16985;50.814;8.530;2023-01-13T06:28:49;6.40;99.90
30174;DHT22;16985;50.814;8.530;2023-01-13T06:31:15;6.40;99.90
30174;DHT22;16985;50.814;8.530;2023-01-13T06:33:49;6.40;99.90
30174;DHT22;16985;50.814;8.530;2023-01-13T06:36:24;6.30;99.90
30174;DHT22;16985;50.814;8.530;2023-01-13T06:38:56;6.30;99.90
30174;DHT22;16985;50.814;8.530;2023-01-13T06:41:25;6.30;99.90
30174;DHT22;16985;50.814;8.530;2023-01-13T06:44:10;6.20;99.90
30174;DHT22;16985;50.814;8.530;2023-01-13T06:46:36;6.20;99.90
30174;DHT22;16985;50.814;8.530;2023-01-13T06:49:02;6.20;99.90
30174;DHT22;16985;50.814;8.530;2023-01-13T06:51:28;6.10;99.90
30174;DHT22;16985;50.814;8.530;2023-01-13T06:53:54;6.10;99.90
30174;DHT22;16985;50.814;8.530;2023-01-13T06:56:19;6.10;99.90
30174;DHT22;16985;50.814;8.530;2023-01-13T06:58:45;6.10;99.90
30174;DHT22;16985;50.814;8.530;2023-01-13T07:01:11;6.10;99.90
30174;DHT22;16985;50.814;8.530;2023-01-13T07:03:37;6.10;99.90
30174;DHT22;16985;50.814;8.530;2023-01-13T07:06:04;6.10;99.90
30174;DHT22;16985;50.814;8.530;2023-01-13T07:08:31;6.00;99.90
30174;DHT22;16985;50.814;8.530;2023-01-13T07:10:56;6.00;99.90
30174;DHT22;16985;50.814;8.530;2023-01-13T07:13:22;6.00;99.90
30174;DHT22;16985;50.814;8.530;2023-01-13T07:16:08;6.00;99.90
30174;DHT22;16985;50.814;8.530;2023-01-13T07:18:35;6.00;99.90
30174;DHT22;16985;50.814;8.530;2023-01-13T07:21:03;6.00;99.90
30174;DHT22;16985;50.814;8.530;2023-01-13T07:23:32;5.90;99.90
30174;DHT22;16985;50.814;8.530;2023-01-13T07:26:13;6.00;99.90
30174;DHT22;16985;50.814;8.530;2023-01-13T07:28:40;5.90;99.90
30174;DHT22;16985;50.814;8.530;2023-01-13T07:31:13;5.90;99.90
30174;DHT22;16985;50.814;8.530;2023-01-13T07:33:40;5.90;99.90
30174;DHT22;16985;50.814;8.530;2023-01-13T07:36:06;5.90;99.90
30174;DHT22;16985;50.814;8.530;2023-01-13T07:38:33;5.90;99.90
30174;DHT22;16985;50.814;8.530;2023-01-13T07:40:59;5.90;99.90
30174;DHT22;16985;50.814;8.530;2023-01-13T07:43:49;5.90;99.90
30174;DHT22;16985;50.814;8.530;2023-01-13T07:46:16;5.80;99.90
30174;DHT22;16985;50.814;8.530;2023-01-13T07:48:42;5.90;99.90
30174;DHT22;16985;50.814;8.530;2023-01-13T07:51:10;5.90;99.90
30174;DHT22;16985;50.814;8.530;2023-01-13T07:53:36;5.90;99.90
30174;DHT22;16985;50.814;8.530;2023-01-13T07:56:04;5.80;99.90
30174;DHT22;16985;50.814;8.530;2023-01-13T07:58:34;5.90;99.90
30174;DHT22;16985;50.814;8.530;2023-01-13T08:01:09;6.00;99.90
30174;DHT22;16985;50.814;8.530;2023-01-13T08:03:37;5.80;99.90
30174;DHT22;16985;50.814;8.530;2023-01-13T08:06:03;5.90;99.90
30174;DHT22;16985;50.814;8.530;2023-01-13T08:08:30;5.90;99.90
30174;DHT22;16985;50.814;8.530;2023-01-13T08:10:59;5.90;99.90
30174;DHT22;16985;50.814;8.530;2023-01-13T08:13:28;5.90;99.90
30174;DHT22;16985;50.814;8.530;2023-01-13T08:16:06;5.90;99.90
30174;DHT22;16985;50.814;8.530;2023-01-13T08:18:34;5.90;99.90
30174;DHT22;16985;50.814;8.530;2023-01-13T08:21:05;5.90;99.90
30174;DHT22;16985;50.814;8.530;2023-01-13T08:23:32;6.00;99.90
30174;DHT22;16985;50.814;8.530;2023-01-13T08:26:00;6.00;99.90
30174;DHT22;16985;50.814;8.530;2023-01-13T08:28:27;6.00;99.90
30174;DHT22;16985;50.814;8.530;2023-01-13T08:30:53;6.00;99.90
30174;DHT22;16985;50.814;8.530;2023-01-13T08:33:20;6.00;99.90
30174;DHT22;16985;50.814;8.530;2023-01-13T08:35:45;5.90;99.90
30174;DHT22;16985;50.814;8.530;2023-01-13T08:38:13;5.90;99.90
30174;DHT22;16985;50.814;8.530;2023-01-13T08:40:40;5.90;99.90
30174;DHT22;16985;50.814;8.530;2023-01-13T08:43:06;6.00;99.90
30174;DHT22;16985;50.814;8.530;2023-01-13T08:45:32;6.00;99.90
30174;DHT22;16985;50.814;8.530;2023-01-13T08:47:57;6.00;99.90
30174;DHT22;16985;50.814;8.530;2023-01-13T08:50:23;6.00;99.90
30174;DHT22;16985;50.814;8.530;2023-01-13T08:52:49;6.00;99.90
30174;DHT22;16985;50.814;8.530;2023-01-13T08:55:15;6.00;99.90
30174;DHT22;16985;50.814;8.530;2023-01-13T08:57:41;6.10;99.90
30174;DHT22;16985;50.814;8.530;2023-01-13T09:00:08;6.10;99.90
30174;DHT22;16985;50.814;8.530;2023-01-13T09:02:34;6.10;99.90
30174;DHT22;16985;50.814;8.530;2023-01-13T09:05:01;6.10;99.90
30174;DHT22;16985;50.814;8.530;2023-01-13T09:07:29;6.20;99.90
30174;DHT22;16985;50.814;8.530;2023-01-13T09:09:55;6.20;99.90
30174;DHT22;16985;50.814;8.530;2023-01-13T09:12:24;6.20;99.90
30174;DHT22;16985;50.814;8.530;2023-01-13T09:15:09;6.20;99.90
30174;DHT22;16985;50.814;8.530;2023-01-13T09:17:35;6.20;99.90
30174;DHT22;16985;50.814;8.530;2023-01-13T09:20:01;6.20;99.90
30174;DHT22;16985;50.814;8.530;2023-01-13T09:22:27;6.20;99.90
30174;DHT22;16985;50.814;8.530;2023-01-13T09:24:53;6.30;99.90
30174;DHT22;16985;50.814;8.530;2023-01-13T09:27:20;6.30;99.90
30174;DHT22;16985;50.814;8.530;2023-01-13T09:29:46;6.30;99.90
30174;DHT22;16985;50.814;8.530;2023-01-13T09:32:13;6.30;99.90
30174;DHT22;16985;50.814;8.530;2023-01-13T09:34:39;6.30;99.90
30174;DHT22;16985;50.814;8.530;2023-01-13T09:37:28;6.40;99.90
30174;DHT22;16985;50.814;8.530;2023-01-13T09:39:59;6.40;99.90
30174;DHT22;16985;50.814;8.530;2023-01-13T10:07:41;6.50;99.90
30174;DHT22;16985;50.814;8.530;2023-01-13T10:10:17;6.60;99.90
30174;DHT22;16985;50.814;8.530;2023-01-13T10:12:52;6.70;99.90
30174;DHT22;16985;50.814;8.530;2023-01-13T10:15:36;6.70;99.90
30174;DHT22;16985;50.814;8.530;2023-01-13T10:18:17;6.70;99.90
30174;DHT22;16985;50.814;8.530;2023-01-13T10:21:42;6.70;99.90
30174;DHT22;16985;50.814;8.530;2023-01-13T10:27:36;6.80;99.90
30174;DHT22;16985;50.814;8.530;2023-01-13T10:32:52;6.90;99.90
30174;DHT22;16985;50.814;8.530;2023-01-13T10:36:14;6.90;99.90
30174;DHT22;16985;50.814;8.530;2023-01-13T10:38:45;6.90;99.90
30174;DHT22;16985;50.814;8.530;2023-01-13T10:43:59;6.90;99.90
30174;DHT22;16985;50.814;8.530;2023-01-13T10:46:27;7.00;99.90
30174;DHT22;16985;50.814;8.530;2023-01-13T10:48:59;7.00;99.90
30174;DHT22;16985;50.814;8.530;2023-01-13T10:56:36;7.00;99.90
30174;DHT22;16985;50.814;8.530;2023-01-13T10:59:16;7.10;99.90
30174;DHT22;16985;50.814;8.530;2023-01-13T11:02:45;7.20;99.90
30174;DHT22;16985;50.814;8.530;2023-01-13T11:07:47;7.30;99.90
30174;DHT22;16985;50.814;8.530;2023-01-13T11:10:25;7.30;99.90
30174;DHT22;16985;50.814;8.530;2023-01-13T11:15:59;7.30;99.90
30174;DHT22;16985;50.814;8.530;2023-01-13T11:18:39;7.20;99.90
30174;DHT22;16985;50.814;8.530;2023-01-13T11:21:30;7.20;99.90
30174;DHT22;16985;50.814;8.530;2023-01-13T11:24:17;7.20;99.90
30174;DHT22;16985;50.814;8.530;2023-01-13T11:27:02;7.20;99.90
30174;DHT22;16985;50.814;8.530;2023-01-13T11:32:38;7.20;99.90
30174;DHT22;16985;50.814;8.530;2023-01-13T11:35:15;7.20;99.90
30174;DHT22;16985;50.814;8.530;2023-01-13T11:37:48;7.20;99.90
30174;DHT22;16985;50.814;8.530;2023-01-13T11:40:24;7.20;99.90
30174;DHT22;16985;50.814;8.530;2023-01-13T11:43:02;7.20;99.90
30174;DHT22;16985;50.814;8.530;2023-01-13T11:45:51;7.10;99.90
30174;DHT22;16985;50.814;8.530;2023-01-13T11:48:25;7.10;99.90
30174;DHT22;16985;50.814;8.530;2023-01-13T11:54:10;7.20;99.90
30174;DHT22;16985;50.814;8.530;2023-01-13T11:57:10;7.20;99.90
30174;DHT22;16985;50.814;8.530;2023-01-13T12:05:59;7.20;99.90
30174;DHT22;16985;50.814;8.530;2023-01-13T12:12:02;7.30;99.90
30174;DHT22;16985;50.814;8.530;2023-01-13T12:20:23;7.30;99.90
30174;DHT22;16985;50.814;8.530;2023-01-13T12:22:53;7.30;99.90
30174;DHT22;16985;50.814;8.530;2023-01-13T12:25:22;7.40;99.90
30174;DHT22;16985;50.814;8.530;2023-01-13T12:28:09;7.40;99.90
30174;DHT22;16985;50.814;8.530;2023-01-13T12:30:48;7.50;99.90
30174;DHT22;16985;50.814;8.530;2023-01-13T12:33:24;7.50;99.90
30174;DHT22;16985;50.814;8.530;2023-01-13T12:36:23;7.50;99.90
30174;DHT22;16985;50.814;8.530;2023-01-13T12:38:56;7.60;99.90
30174;DHT22;16985;50.814;8.530;2023-01-13T12:47:43;7.50;99.90
30174;DHT22;16985;50.814;8.530;2023-01-13T12:52:49;7.50;99.90
30174;DHT22;16985;50.814;8.530;2023-01-13T12:55:34;7.50;99.90
30174;DHT22;16985;50.814;8.530;2023-01-13T13:03:27;7.50;99.90
30174;DHT22;16985;50.814;8.530;2023-01-13T14:58:25;6.90;99.90
30174;DHT22;16985;50.814;8.530;2023-01-13T15:01:25;6.80;99.90
30174;DHT22;16985;50.814;8.530;2023-01-13T15:04:26;6.80;99.90
30174;DHT22;16985;50.814;8.530;2023-01-13T15:06:57;6.70;99.90
30174;DHT22;16985;50.814;8.530;2023-01-13T15:09:26;6.70;99.90
30174;DHT22;16985;50.814;8.530;2023-01-13T15:11:53;6.70;99.90
30174;DHT22;16985;50.814;8.530;2023-01-13T15:14:28;6.60;99.90
30174;DHT22;16985;50.814;8.530;2023-01-13T15:16:56;6.60;99.90
30174;DHT22;16985;50.814;8.530;2023-01-13T15:19:37;6.60;99.90
30174;DHT22;16985;50.814;8.530;2023-01-13T15:22:03;6.50;99.90
30174;DHT22;16985;50.814;8.530;2023-01-13T15:24:29;6.50;99.90
30174;DHT22;16985;50.814;8.530;2023-01-13T15:26:55;6.40;99.90
30174;DHT22;16985;50.814;8.530;2023-01-13T15:29:21;6.40;99.90
30174;DHT22;16985;50.814;8.530;2023-01-13T15:31:47;6.40;99.90
30174;DHT22;16985;50.814;8.530;2023-01-13T15:34:12;6.30;99.90
30174;DHT22;16985;50.814;8.530;2023-01-13T15:36:38;6.30;99.90
30174;DHT22;16985;50.814;8.530;2023-01-13T15:39:06;6.30;99.90
30174;DHT22;16985;50.814;8.530;2023-01-13T15:41:34;6.20;99.90
30174;DHT22;16985;50.814;8.530;2023-01-13T15:44:18;6.20;99.90
30174;DHT22;16985;50.814;8.530;2023-01-13T15:47:06;6.20;99.90
30174;DHT22;16985;50.814;8.530;2023-01-13T15:49:38;6.20;99.90
30174;DHT22;16985;50.814;8.530;2023-01-13T15:52:23;6.20;99.90
30174;DHT22;16985;50.814;8.530;2023-01-13T15:54:50;6.10;99.90
30174;DHT22;16985;50.814;8.530;2023-01-13T15:57:25;6.10;99.90
30174;DHT22;16985;50.814;8.530;2023-01-13T15:59:55;6.10;99.90
30174;DHT22;16985;50.814;8.530;2023-01-13T16:02:23;6.10;99.90
30174;DHT22;16985;50.814;8.530;2023-01-13T16:04:50;6.10;99.90
30174;DHT22;16985;50.814;8.530;2023-01-13T16:07:19;6.10;99.90
30174;DHT22;16985;50.814;8.530;2023-01-13T16:09:46;6.10;99.90
30174;DHT22;16985;50.814;8.530;2023-01-13T16:12:12;6.00;99.90
30174;DHT22;16985;50.814;8.530;2023-01-13T16:14:38;6.10;99.90
30174;DHT22;16985;50.814;8.530;2023-01-13T16:17:17;6.10;99.90
30174;DHT22;16985;50.814;8.530;2023-01-13T16:19:45;6.10;99.90
30174;DHT22;16985;50.814;8.530;2023-01-13T16:22:12;6.10;99.90
30174;DHT22;16985;50.814;8.530;2023-01-13T16:24:39;6.10;99.90
30174;DHT22;16985;50.814;8.530;2023-01-13T16:27:14;6.10;99.90
30174;DHT22;16985;50.814;8.530;2023-01-13T16:29:41;6.10;99.90
30174;DHT22;16985;50.814;8.530;2023-01-13T16:32:08;6.10;99.90
30174;DHT22;16985;50.814;8.530;2023-01-13T16:34:33;6.10;99.90
30174;DHT22;16985;50.814;8.530;2023-01-13T16:37:00;6.10;99.90
30174;DHT22;16985;50.814;8.530;2023-01-13T16:39:25;6.10;99.90
30174;DHT22;16985;50.814;8.530;2023-01-13T16:41:51;6.10;99.90
30174;DHT22;16985;50.814;8.530;2023-01-13T16:44:18;6.10;99.90
30174;DHT22;16985;50.814;8.530;2023-01-13T16:46:44;6.10;99.90
30174;DHT22;16985;50.814;8.530;2023-01-13T16:49:12;6.10;99.90
30174;DHT22;16985;50.814;8.530;2023-01-13T16:51:38;6.10;99.90
30174;DHT22;16985;50.814;8.530;2023-01-13T16:54:05;6.00;99.90
30174;DHT22;16985;50.814;8.530;2023-01-13T16:56:33;6.00;99.90
30174;DHT22;16985;50.814;8.530;2023-01-13T16:59:10;6.10;99.90
30174;DHT22;16985;50.814;8.530;2023-01-13T17:01:40;6.10;99.90
30174;DHT22;16985;50.814;8.530;2023-01-13T17:04:13;6.10;99.90
30174;DHT22;16985;50.814;8.530;2023-01-13T17:06:53;6.10;99.90
30174;DHT22;16985;50.814;8.530;2023-01-13T17:09:22;6.20;99.90
30174;DHT22;16985;50.814;8.530;2023-01-13T17:11:49;6.20;99.90
30174;DHT22;16985;50.814;8.530;2023-01-13T17:14:16;6.20;99.90
30174;DHT22;16985;50.814;8.530;2023-01-13T17:16:43;6.10;99.90
30174;DHT22;16985;50.814;8.530;2023-01-13T17:19:10;6.10;99.90
30174;DHT22;16985;50.814;8.530;2023-01-13T17:21:36;6.10;99.90
30174;DHT22;16985;50.814;8.530;2023-01-13T17:24:02;6.10;99.90
30174;DHT22;16985;50.814;8.530;2023-01-13T17:26:33;6.10;99.90
30174;DHT22;16985;50.814;8.530;2023-01-13T17:29:04;6.10;99.90
30174;DHT22;16985;50.814;8.530;2023-01-13T17:31:31;6.10;99.90
30174;DHT22;16985;50.814;8.530;2023-01-13T17:34:00;6.10;99.90
30174;DHT22;16985;50.814;8.530;2023-01-13T17:36:26;6.10;99.90
30174;DHT22;16985;50.814;8.530;2023-01-13T17:38:54;6.10;99.90
30174;DHT22;16985;50.814;8.530;2023-01-13T17:41:21;6.10;99.90
